METAR Formatted Surface Weather Observation
Issued by NWS

Home | Current Version | Previous Version | Text Only | Print | Product List | Glossary On
Versions: 1 2 3 4 5 6 7 8 9 10 11 12 13 14 15 16 17 18 19 20 21 22 23 24 25 26 27 28 29 30 31 32 33 34 35 36 37 38 39 40
000
SAUS41 KLWX 221813 COR
MTRRSP
METAR KRSP 221754Z AUTO 35011G23KT 310V030 10SM OVC035 05/M03 A3000
RMK AO2 SLP171 T00501028 10078 20039 53008 $



USA.gov is the U.S. government's official web portal to all federal, state and local government web resources and services.